sensor_id;sensor_type;location;lat;lon;timestamp;P1;durP1;ratioP1;P2;durP2;ratioP2
71366;SDS011;60030;52.274;8.040;2023-04-06T00:00:54;5.70;;;4.30;;
71366;SDS011;60030;52.274;8.040;2023-04-06T00:03:21;7.20;;;4.50;;
71366;SDS011;60030;52.274;8.040;2023-04-06T00:05:48;7.70;;;4.67;;
71366;SDS011;60030;52.274;8.040;2023-04-06T00:08:15;6.27;;;4.23;;
71366;SDS011;60030;52.274;8.040;2023-04-06T00:10:42;7.00;;;4.33;;
71366;SDS011;60030;52.274;8.040;2023-04-06T00:13:09;5.23;;;4.30;;
71366;SDS011;60030;52.274;8.040;2023-04-06T00:15:38;6.37;;;4.23;;
71366;SDS011;60030;52.274;8.040;2023-04-06T00:18:05;5.67;;;4.27;;
71366;SDS011;60030;52.274;8.040;2023-04-06T00:20:32;7.37;;;4.50;;
71366;SDS011;60030;52.274;8.040;2023-04-06T00:22:59;5.97;;;4.73;;
71366;SDS011;60030;52.274;8.040;2023-04-06T00:25:26;6.90;;;4.87;;
71366;SDS011;60030;52.274;8.040;2023-04-06T00:27:53;5.93;;;4.77;;
71366;SDS011;60030;52.274;8.040;2023-04-06T00:30:20;5.27;;;4.10;;
71366;SDS011;60030;52.274;8.040;2023-04-06T00:32:49;7.63;;;4.73;;
71366;SDS011;60030;52.274;8.040;2023-04-06T00:35:17;4.90;;;4.17;;
71366;SDS011;60030;52.274;8.040;2023-04-06T00:37:45;8.07;;;4.60;;
71366;SDS011;60030;52.274;8.040;2023-04-06T00:40:13;5.33;;;4.63;;
71366;SDS011;60030;52.274;8.040;2023-04-06T00:42:40;5.47;;;4.37;;
71366;SDS011;60030;52.274;8.040;2023-04-06T00:45:08;6.53;;;4.20;;
71366;SDS011;60030;52.274;8.040;2023-04-06T00:47:36;7.43;;;4.93;;
71366;SDS011;60030;52.274;8.040;2023-04-06T00:50:06;6.43;;;4.47;;
71366;SDS011;60030;52.274;8.040;2023-04-06T00:52:34;5.50;;;4.27;;
71366;SDS011;60030;52.274;8.040;2023-04-06T00:55:01;8.30;;;5.17;;
71366;SDS011;60030;52.274;8.040;2023-04-06T00:57:30;6.70;;;4.47;;
71366;SDS011;60030;52.274;8.040;2023-04-06T00:59:58;7.70;;;5.40;;
71366;SDS011;60030;52.274;8.040;2023-04-06T01:02:25;5.37;;;4.77;;
71366;SDS011;60030;52.274;8.040;2023-04-06T01:04:53;7.97;;;4.73;;
71366;SDS011;60030;52.274;8.040;2023-04-06T01:07:35;8.47;;;4.93;;
71366;SDS011;60030;52.274;8.040;2023-04-06T01:10:10;9.97;;;4.87;;
71366;SDS011;60030;52.274;8.040;2023-04-06T01:12:37;7.50;;;4.57;;
71366;SDS011;60030;52.274;8.040;2023-04-06T01:15:11;7.70;;;4.50;;
71366;SDS011;60030;52.274;8.040;2023-04-06T01:17:43;5.37;;;4.60;;
71366;SDS011;60030;52.274;8.040;2023-04-06T01:20:13;8.83;;;4.60;;
71366;SDS011;60030;52.274;8.040;2023-04-06T01:22:42;6.10;;;4.77;;
71366;SDS011;60030;52.274;8.040;2023-04-06T01:25:10;5.37;;;4.50;;
71366;SDS011;60030;52.274;8.040;2023-04-06T01:27:49;8.03;;;5.07;;
71366;SDS011;60030;52.274;8.040;2023-04-06T01:30:36;7.50;;;4.83;;
71366;SDS011;60030;52.274;8.040;2023-04-06T01:33:10;8.27;;;4.90;;
71366;SDS011;60030;52.274;8.040;2023-04-06T01:35:56;6.60;;;5.00;;
71366;SDS011;60030;52.274;8.040;2023-04-06T01:38:25;5.63;;;4.63;;
71366;SDS011;60030;52.274;8.040;2023-04-06T01:40:52;6.73;;;5.00;;
71366;SDS011;60030;52.274;8.040;2023-04-06T01:43:21;6.77;;;5.00;;
71366;SDS011;60030;52.274;8.040;2023-04-06T01:45:59;6.90;;;4.77;;
71366;SDS011;60030;52.274;8.040;2023-04-06T01:48:32;5.13;;;4.60;;
71366;SDS011;60030;52.274;8.040;2023-04-06T01:51:03;7.13;;;5.10;;
71366;SDS011;60030;52.274;8.040;2023-04-06T01:53:36;7.40;;;4.93;;
71366;SDS011;60030;52.274;8.040;2023-04-06T01:56:05;7.33;;;4.97;;
71366;SDS011;60030;52.274;8.040;2023-04-06T01:58:37;6.73;;;5.00;;
71366;SDS011;60030;52.274;8.040;2023-04-06T02:01:05;7.53;;;4.47;;
71366;SDS011;60030;52.274;8.040;2023-04-06T02:03:45;7.23;;;4.73;;
71366;SDS011;60030;52.274;8.040;2023-04-06T02:06:12;7.83;;;5.10;;
71366;SDS011;60030;52.274;8.040;2023-04-06T02:08:41;7.00;;;5.10;;
71366;SDS011;60030;52.274;8.040;2023-04-06T02:11:08;8.80;;;4.93;;
71366;SDS011;60030;52.274;8.040;2023-04-06T02:13:41;8.13;;;5.60;;
71366;SDS011;60030;52.274;8.040;2023-04-06T02:16:10;6.80;;;5.03;;
71366;SDS011;60030;52.274;8.040;2023-04-06T02:18:37;7.80;;;5.50;;
71366;SDS011;60030;52.274;8.040;2023-04-06T02:21:04;6.50;;;5.10;;
71366;SDS011;60030;52.274;8.040;2023-04-06T02:23:31;7.07;;;5.20;;
71366;SDS011;60030;52.274;8.040;2023-04-06T02:26:00;7.67;;;5.30;;
71366;SDS011;60030;52.274;8.040;2023-04-06T02:28:27;7.67;;;5.30;;
71366;SDS011;60030;52.274;8.040;2023-04-06T02:30:54;6.10;;;5.30;;
71366;SDS011;60030;52.274;8.040;2023-04-06T02:33:25;10.33;;;5.40;;
71366;SDS011;60030;52.274;8.040;2023-04-06T02:35:52;9.50;;;5.50;;
71366;SDS011;60030;52.274;8.040;2023-04-06T02:38:19;7.97;;;5.43;;
71366;SDS011;60030;52.274;8.040;2023-04-06T02:40:46;7.40;;;5.50;;
71366;SDS011;60030;52.274;8.040;2023-04-06T02:43:21;6.37;;;4.93;;
71366;SDS011;60030;52.274;8.040;2023-04-06T02:45:53;8.77;;;5.20;;
71366;SDS011;60030;52.274;8.040;2023-04-06T02:48:22;7.07;;;4.70;;
71366;SDS011;60030;52.274;8.040;2023-04-06T02:50:49;6.53;;;5.40;;
71366;SDS011;60030;52.274;8.040;2023-04-06T02:53:16;6.53;;;5.73;;
71366;SDS011;60030;52.274;8.040;2023-04-06T02:55:43;6.23;;;4.97;;
71366;SDS011;60030;52.274;8.040;2023-04-06T02:58:10;7.17;;;5.13;;
71366;SDS011;60030;52.274;8.040;2023-04-06T03:00:45;8.70;;;6.00;;
71366;SDS011;60030;52.274;8.040;2023-04-06T03:03:12;5.13;;;4.43;;
71366;SDS011;60030;52.274;8.040;2023-04-06T03:05:41;6.70;;;5.00;;
71366;SDS011;60030;52.274;8.040;2023-04-06T03:08:09;7.03;;;5.23;;
71366;SDS011;60030;52.274;8.040;2023-04-06T03:10:42;10.47;;;5.50;;
71366;SDS011;60030;52.274;8.040;2023-04-06T03:13:09;6.23;;;4.60;;
71366;SDS011;60030;52.274;8.040;2023-04-06T03:15:56;7.20;;;5.13;;
71366;SDS011;60030;52.274;8.040;2023-04-06T03:18:24;5.83;;;4.83;;
71366;SDS011;60030;52.274;8.040;2023-04-06T03:20:53;7.73;;;5.67;;
71366;SDS011;60030;52.274;8.040;2023-04-06T03:23:22;7.53;;;5.57;;
71366;SDS011;60030;52.274;8.040;2023-04-06T03:25:54;6.27;;;5.50;;
71366;SDS011;60030;52.274;8.040;2023-04-06T03:28:22;11.07;;;5.43;;
71366;SDS011;60030;52.274;8.040;2023-04-06T03:30:57;10.57;;;6.20;;
71366;SDS011;60030;52.274;8.040;2023-04-06T03:33:39;6.67;;;5.40;;
71366;SDS011;60030;52.274;8.040;2023-04-06T03:36:10;8.53;;;5.70;;
71366;SDS011;60030;52.274;8.040;2023-04-06T03:38:40;7.23;;;5.00;;
71366;SDS011;60030;52.274;8.040;2023-04-06T03:41:11;10.03;;;5.30;;
71366;SDS011;60030;52.274;8.040;2023-04-06T03:43:42;7.03;;;5.57;;
71366;SDS011;60030;52.274;8.040;2023-04-06T03:46:10;8.03;;;5.50;;
71366;SDS011;60030;52.274;8.040;2023-04-06T03:48:37;8.37;;;5.60;;
71366;SDS011;60030;52.274;8.040;2023-04-06T03:51:06;6.57;;;5.10;;
71366;SDS011;60030;52.274;8.040;2023-04-06T03:53:33;7.73;;;5.27;;
71366;SDS011;60030;52.274;8.040;2023-04-06T03:56:02;6.23;;;5.63;;
71366;SDS011;60030;52.274;8.040;2023-04-06T03:58:29;6.93;;;5.10;;
71366;SDS011;60030;52.274;8.040;2023-04-06T04:00:56;8.03;;;5.87;;
71366;SDS011;60030;52.274;8.040;2023-04-06T04:03:25;6.57;;;5.27;;
71366;SDS011;60030;52.274;8.040;2023-04-06T04:05:52;8.27;;;6.13;;
71366;SDS011;60030;52.274;8.040;2023-04-06T04:08:20;10.63;;;6.27;;
71366;SDS011;60030;52.274;8.040;2023-04-06T04:10:48;9.07;;;5.97;;
71366;SDS011;60030;52.274;8.040;2023-04-06T04:13:15;6.87;;;5.60;;
71366;SDS011;60030;52.274;8.040;2023-04-06T04:15:45;8.67;;;5.83;;
71366;SDS011;60030;52.274;8.040;2023-04-06T04:18:14;8.83;;;5.83;;
71366;SDS011;60030;52.274;8.040;2023-04-06T04:20:43;10.80;;;5.93;;
71366;SDS011;60030;52.274;8.040;2023-04-06T04:23:11;8.70;;;5.93;;
71366;SDS011;60030;52.274;8.040;2023-04-06T04:25:39;8.83;;;5.77;;
71366;SDS011;60030;52.274;8.040;2023-04-06T04:28:06;8.43;;;5.90;;
71366;SDS011;60030;52.274;8.040;2023-04-06T04:30:35;10.63;;;5.77;;
71366;SDS011;60030;52.274;8.040;2023-04-06T04:33:07;8.10;;;5.70;;
71366;SDS011;60030;52.274;8.040;2023-04-06T04:35:34;8.80;;;6.20;;
71366;SDS011;60030;52.274;8.040;2023-04-06T04:38:02;10.07;;;6.13;;
71366;SDS011;60030;52.274;8.040;2023-04-06T04:40:31;9.57;;;5.97;;
71366;SDS011;60030;52.274;8.040;2023-04-06T04:43:06;6.97;;;5.70;;
71366;SDS011;60030;52.274;8.040;2023-04-06T04:45:33;10.27;;;6.00;;
71366;SDS011;60030;52.274;8.040;2023-04-06T04:48:21;7.53;;;5.50;;
71366;SDS011;60030;52.274;8.040;2023-04-06T04:50:58;8.30;;;6.10;;
71366;SDS011;60030;52.274;8.040;2023-04-06T04:53:34;10.73;;;6.57;;
71366;SDS011;60030;52.274;8.040;2023-04-06T04:56:12;8.20;;;5.93;;
71366;SDS011;60030;52.274;8.040;2023-04-06T04:58:39;9.17;;;6.30;;
71366;SDS011;60030;52.274;8.040;2023-04-06T05:01:07;9.80;;;5.90;;
71366;SDS011;60030;52.274;8.040;2023-04-06T05:03:34;8.40;;;6.20;;
71366;SDS011;60030;52.274;8.040;2023-04-06T05:06:06;8.50;;;5.57;;
71366;SDS011;60030;52.274;8.040;2023-04-06T05:08:37;9.53;;;6.40;;
71366;SDS011;60030;52.274;8.040;2023-04-06T05:11:05;8.00;;;5.73;;
71366;SDS011;60030;52.274;8.040;2023-04-06T05:13:36;10.27;;;6.07;;
71366;SDS011;60030;52.274;8.040;2023-04-06T05:16:10;8.07;;;6.10;;
71366;SDS011;60030;52.274;8.040;2023-04-06T05:18:37;7.40;;;5.50;;
71366;SDS011;60030;52.274;8.040;2023-04-06T05:21:05;9.00;;;5.70;;
71366;SDS011;60030;52.274;8.040;2023-04-06T05:23:51;12.20;;;6.87;;
71366;SDS011;60030;52.274;8.040;2023-04-06T05:26:20;9.57;;;6.03;;
71366;SDS011;60030;52.274;8.040;2023-04-06T05:28:50;8.83;;;6.10;;
71366;SDS011;60030;52.274;8.040;2023-04-06T05:31:18;12.33;;;6.70;;
71366;SDS011;60030;52.274;8.040;2023-04-06T05:33:48;8.67;;;6.30;;
71366;SDS011;60030;52.274;8.040;2023-04-06T05:36:23;9.27;;;6.20;;
71366;SDS011;60030;52.274;8.040;2023-04-06T05:38:52;9.77;;;6.30;;
71366;SDS011;60030;52.274;8.040;2023-04-06T05:41:39;9.90;;;7.47;;
71366;SDS011;60030;52.274;8.040;2023-04-06T05:44:08;8.87;;;6.43;;
71366;SDS011;60030;52.274;8.040;2023-04-06T05:46:37;9.60;;;6.63;;
71366;SDS011;60030;52.274;8.040;2023-04-06T05:49:06;9.87;;;6.90;;
71366;SDS011;60030;52.274;8.040;2023-04-06T05:51:35;10.67;;;7.03;;
71366;SDS011;60030;52.274;8.040;2023-04-06T05:54:03;7.80;;;6.50;;
71366;SDS011;60030;52.274;8.040;2023-04-06T05:56:31;10.77;;;7.30;;
71366;SDS011;60030;52.274;8.040;2023-04-06T05:58:59;9.80;;;6.27;;
71366;SDS011;60030;52.274;8.040;2023-04-06T06:01:28;8.80;;;6.50;;
71366;SDS011;60030;52.274;8.040;2023-04-06T06:03:56;8.07;;;6.33;;
71366;SDS011;60030;52.274;8.040;2023-04-06T06:06:27;10.13;;;6.80;;
71366;SDS011;60030;52.274;8.040;2023-04-06T06:09:14;9.23;;;6.93;;
71366;SDS011;60030;52.274;8.040;2023-04-06T06:11:50;9.37;;;6.40;;
71366;SDS011;60030;52.274;8.040;2023-04-06T06:14:20;9.83;;;7.40;;
71366;SDS011;60030;52.274;8.040;2023-04-06T06:16:48;8.83;;;6.83;;
71366;SDS011;60030;52.274;8.040;2023-04-06T06:19:15;11.53;;;6.47;;
71366;SDS011;60030;52.274;8.040;2023-04-06T06:21:43;9.07;;;7.00;;
71366;SDS011;60030;52.274;8.040;2023-04-06T06:24:10;11.87;;;7.30;;
71366;SDS011;60030;52.274;8.040;2023-04-06T06:26:39;13.93;;;6.90;;
71366;SDS011;60030;52.274;8.040;2023-04-06T06:29:08;9.77;;;6.30;;
71366;SDS011;60030;52.274;8.040;2023-04-06T06:31:38;8.37;;;6.87;;
71366;SDS011;60030;52.274;8.040;2023-04-06T06:34:05;10.10;;;7.20;;
71366;SDS011;60030;52.274;8.040;2023-04-06T06:36:34;9.87;;;7.00;;
71366;SDS011;60030;52.274;8.040;2023-04-06T06:39:05;9.13;;;7.07;;
71366;SDS011;60030;52.274;8.040;2023-04-06T06:41:32;11.87;;;7.37;;
71366;SDS011;60030;52.274;8.040;2023-04-06T06:44:01;12.40;;;7.20;;
71366;SDS011;60030;52.274;8.040;2023-04-06T06:46:28;12.80;;;6.97;;
71366;SDS011;60030;52.274;8.040;2023-04-06T06:48:55;10.67;;;6.90;;
71366;SDS011;60030;52.274;8.040;2023-04-06T06:51:22;10.87;;;7.13;;
71366;SDS011;60030;52.274;8.040;2023-04-06T06:53:49;10.70;;;6.97;;
71366;SDS011;60030;52.274;8.040;2023-04-06T06:56:17;10.40;;;6.33;;
71366;SDS011;60030;52.274;8.040;2023-04-06T06:58:44;12.03;;;6.77;;
71366;SDS011;60030;52.274;8.040;2023-04-06T07:01:12;10.03;;;6.40;;
71366;SDS011;60030;52.274;8.040;2023-04-06T07:03:41;10.03;;;7.13;;
71366;SDS011;60030;52.274;8.040;2023-04-06T07:06:08;9.40;;;6.83;;
71366;SDS011;60030;52.274;8.040;2023-04-06T07:08:38;11.13;;;6.40;;
71366;SDS011;60030;52.274;8.040;2023-04-06T07:11:05;10.03;;;7.23;;
71366;SDS011;60030;52.274;8.040;2023-04-06T07:13:32;8.43;;;6.33;;
71366;SDS011;60030;52.274;8.040;2023-04-06T07:16:01;11.73;;;6.70;;
71366;SDS011;60030;52.274;8.040;2023-04-06T07:18:29;8.60;;;6.97;;
71366;SDS011;60030;52.274;8.040;2023-04-06T07:20:58;12.07;;;7.83;;
71366;SDS011;60030;52.274;8.040;2023-04-06T07:23:25;9.17;;;7.23;;
71366;SDS011;60030;52.274;8.040;2023-04-06T07:25:52;9.43;;;6.60;;
71366;SDS011;60030;52.274;8.040;2023-04-06T07:28:20;8.73;;;7.27;;
71366;SDS011;60030;52.274;8.040;2023-04-06T07:30:47;9.50;;;7.07;;
71366;SDS011;60030;52.274;8.040;2023-04-06T07:33:15;13.67;;;7.30;;
71366;SDS011;60030;52.274;8.040;2023-04-06T07:35:43;18.90;;;7.53;;
71366;SDS011;60030;52.274;8.040;2023-04-06T07:38:11;9.83;;;6.90;;
71366;SDS011;60030;52.274;8.040;2023-04-06T07:40:39;10.80;;;7.00;;
71366;SDS011;60030;52.274;8.040;2023-04-06T07:43:06;10.07;;;7.50;;
71366;SDS011;60030;52.274;8.040;2023-04-06T07:45:34;11.93;;;7.57;;
71366;SDS011;60030;52.274;8.040;2023-04-06T07:48:01;9.67;;;7.40;;
71366;SDS011;60030;52.274;8.040;2023-04-06T07:50:30;13.53;;;7.60;;
71366;SDS011;60030;52.274;8.040;2023-04-06T07:52:59;9.07;;;6.70;;
71366;SDS011;60030;52.274;8.040;2023-04-06T07:55:26;10.93;;;7.77;;
71366;SDS011;60030;52.274;8.040;2023-04-06T07:57:54;13.30;;;7.93;;
71366;SDS011;60030;52.274;8.040;2023-04-06T08:00:21;9.83;;;7.37;;
71366;SDS011;60030;52.274;8.040;2023-04-06T08:02:48;11.97;;;7.63;;
71366;SDS011;60030;52.274;8.040;2023-04-06T08:05:15;12.47;;;8.10;;
71366;SDS011;60030;52.274;8.040;2023-04-06T08:07:43;13.47;;;7.67;;
71366;SDS011;60030;52.274;8.040;2023-04-06T08:10:11;11.10;;;6.87;;
71366;SDS011;60030;52.274;8.040;2023-04-06T08:12:38;9.47;;;6.57;;
71366;SDS011;60030;52.274;8.040;2023-04-06T08:15:06;8.23;;;6.90;;
71366;SDS011;60030;52.274;8.040;2023-04-06T08:17:33;10.90;;;6.87;;
71366;SDS011;60030;52.274;8.040;2023-04-06T08:20:00;11.17;;;7.23;;
71366;SDS011;60030;52.274;8.040;2023-04-06T08:22:28;11.20;;;7.20;;
71366;SDS011;60030;52.274;8.040;2023-04-06T08:24:55;9.77;;;7.10;;
71366;SDS011;60030;52.274;8.040;2023-04-06T08:27:24;8.90;;;6.20;;
71366;SDS011;60030;52.274;8.040;2023-04-06T08:29:51;9.17;;;5.57;;
71366;SDS011;60030;52.274;8.040;2023-04-06T08:32:18;8.60;;;6.60;;
71366;SDS011;60030;52.274;8.040;2023-04-06T08:34:46;9.67;;;6.47;;
71366;SDS011;60030;52.274;8.040;2023-04-06T08:37:13;9.27;;;6.03;;
71366;SDS011;60030;52.274;8.040;2023-04-06T08:39:40;7.30;;;6.07;;
71366;SDS011;60030;52.274;8.040;2023-04-06T08:42:10;9.53;;;6.23;;
71366;SDS011;60030;52.274;8.040;2023-04-06T08:44:44;8.23;;;6.20;;
71366;SDS011;60030;52.274;8.040;2023-04-06T08:47:12;9.17;;;6.40;;
71366;SDS011;60030;52.274;8.040;2023-04-06T08:49:39;8.73;;;6.00;;
71366;SDS011;60030;52.274;8.040;2023-04-06T08:52:08;8.10;;;5.53;;
71366;SDS011;60030;52.274;8.040;2023-04-06T08:54:37;7.63;;;6.13;;
71366;SDS011;60030;52.274;8.040;2023-04-06T08:57:05;10.37;;;6.13;;
71366;SDS011;60030;52.274;8.040;2023-04-06T08:59:33;9.40;;;6.30;;
71366;SDS011;60030;52.274;8.040;2023-04-06T09:02:03;9.93;;;6.40;;
71366;SDS011;60030;52.274;8.040;2023-04-06T09:04:31;8.77;;;6.23;;
71366;SDS011;60030;52.274;8.040;2023-04-06T09:06:59;8.47;;;6.13;;
71366;SDS011;60030;52.274;8.040;2023-04-06T09:09:27;11.03;;;6.10;;
71366;SDS011;60030;52.274;8.040;2023-04-06T09:11:54;9.83;;;6.67;;
71366;SDS011;60030;52.274;8.040;2023-04-06T09:14:33;8.73;;;6.50;;
71366;SDS011;60030;52.274;8.040;2023-04-06T09:17:03;9.83;;;6.63;;
71366;SDS011;60030;52.274;8.040;2023-04-06T09:19:30;10.50;;;6.87;;
71366;SDS011;60030;52.274;8.040;2023-04-06T09:22:01;12.20;;;7.57;;
71366;SDS011;60030;52.274;8.040;2023-04-06T09:24:39;10.13;;;7.17;;
71366;SDS011;60030;52.274;8.040;2023-04-06T09:27:07;11.00;;;7.57;;
71366;SDS011;60030;52.274;8.040;2023-04-06T09:29:34;8.53;;;7.13;;
71366;SDS011;60030;52.274;8.040;2023-04-06T09:32:04;16.60;;;7.93;;
71366;SDS011;60030;52.274;8.040;2023-04-06T09:34:32;11.27;;;6.93;;
71366;SDS011;60030;52.274;8.040;2023-04-06T09:36:59;12.07;;;9.70;;
71366;SDS011;60030;52.274;8.040;2023-04-06T09:39:26;30.10;;;20.33;;
71366;SDS011;60030;52.274;8.040;2023-04-06T09:41:53;14.43;;;8.70;;
71366;SDS011;60030;52.274;8.040;2023-04-06T09:44:21;13.97;;;8.03;;
71366;SDS011;60030;52.274;8.040;2023-04-06T09:46:49;13.03;;;7.83;;
71366;SDS011;60030;52.274;8.040;2023-04-06T09:49:19;10.07;;;7.73;;
71366;SDS011;60030;52.274;8.040;2023-04-06T09:51:48;15.67;;;8.23;;
71366;SDS011;60030;52.274;8.040;2023-04-06T09:54:22;13.37;;;8.07;;
71366;SDS011;60030;52.274;8.040;2023-04-06T09:56:50;11.97;;;7.43;;
71366;SDS011;60030;52.274;8.040;2023-04-06T09:59:25;10.60;;;7.57;;
71366;SDS011;60030;52.274;8.040;2023-04-06T10:01:58;13.43;;;7.67;;
71366;SDS011;60030;52.274;8.040;2023-04-06T10:04:31;14.93;;;8.50;;
71366;SDS011;60030;52.274;8.040;2023-04-06T10:07:03;14.27;;;9.50;;
71366;SDS011;60030;52.274;8.040;2023-04-06T10:09:33;12.10;;;8.57;;
71366;SDS011;60030;52.274;8.040;2023-04-06T10:12:03;10.37;;;7.27;;
71366;SDS011;60030;52.274;8.040;2023-04-06T10:14:31;18.20;;;8.17;;
71366;SDS011;60030;52.274;8.040;2023-04-06T10:17:02;11.57;;;7.43;;
71366;SDS011;60030;52.274;8.040;2023-04-06T10:19:34;13.17;;;8.47;;
71366;SDS011;60030;52.274;8.040;2023-04-06T10:22:08;12.83;;;8.23;;
71366;SDS011;60030;52.274;8.040;2023-04-06T10:24:38;11.33;;;8.07;;
71366;SDS011;60030;52.274;8.040;2023-04-06T10:27:06;12.50;;;8.07;;
71366;SDS011;60030;52.274;8.040;2023-04-06T10:29:42;14.70;;;8.00;;
71366;SDS011;60030;52.274;8.040;2023-04-06T10:32:11;11.73;;;8.07;;
71366;SDS011;60030;52.274;8.040;2023-04-06T10:34:40;15.50;;;9.77;;
71366;SDS011;60030;52.274;8.040;2023-04-06T10:37:10;14.40;;;10.57;;
71366;SDS011;60030;52.274;8.040;2023-04-06T10:39:48;14.10;;;10.70;;
71366;SDS011;60030;52.274;8.040;2023-04-06T10:42:23;11.83;;;9.37;;
71366;SDS011;60030;52.274;8.040;2023-04-06T10:44:51;13.90;;;9.00;;
71366;SDS011;60030;52.274;8.040;2023-04-06T10:47:18;12.43;;;8.97;;
71366;SDS011;60030;52.274;8.040;2023-04-06T10:49:46;13.70;;;9.27;;
71366;SDS011;60030;52.274;8.040;2023-04-06T10:52:14;14.97;;;9.87;;
71366;SDS011;60030;52.274;8.040;2023-04-06T10:54:41;12.93;;;9.80;;
71366;SDS011;60030;52.274;8.040;2023-04-06T10:57:09;15.03;;;9.73;;
71366;SDS011;60030;52.274;8.040;2023-04-06T10:59:37;14.47;;;9.27;;
71366;SDS011;60030;52.274;8.040;2023-04-06T11:02:08;13.70;;;9.63;;
71366;SDS011;60030;52.274;8.040;2023-04-06T11:04:54;15.30;;;10.17;;
71366;SDS011;60030;52.274;8.040;2023-04-06T11:07:23;12.90;;;9.20;;
71366;SDS011;60030;52.274;8.040;2023-04-06T11:09:50;13.80;;;9.70;;
71366;SDS011;60030;52.274;8.040;2023-04-06T11:12:21;14.07;;;9.40;;
71366;SDS011;60030;52.274;8.040;2023-04-06T11:14:53;14.43;;;9.30;;
71366;SDS011;60030;52.274;8.040;2023-04-06T11:17:26;11.00;;;8.40;;
71366;SDS011;60030;52.274;8.040;2023-04-06T11:19:55;13.73;;;8.00;;
71366;SDS011;60030;52.274;8.040;2023-04-06T11:22:22;11.73;;;8.70;;
71366;SDS011;60030;52.274;8.040;2023-04-06T11:24:49;13.50;;;8.00;;
71366;SDS011;60030;52.274;8.040;2023-04-06T11:27:17;12.97;;;8.10;;
71366;SDS011;60030;52.274;8.040;2023-04-06T11:29:44;14.33;;;8.90;;
71366;SDS011;60030;52.274;8.040;2023-04-06T11:32:19;14.60;;;9.77;;
71366;SDS011;60030;52.274;8.040;2023-04-06T11:34:47;12.73;;;8.40;;
71366;SDS011;60030;52.274;8.040;2023-04-06T11:37:16;14.90;;;8.77;;
71366;SDS011;60030;52.274;8.040;2023-04-06T11:39:49;12.30;;;8.47;;
71366;SDS011;60030;52.274;8.040;2023-04-06T11:42:23;11.30;;;8.27;;
71366;SDS011;60030;52.274;8.040;2023-04-06T11:44:53;13.50;;;8.43;;
71366;SDS011;60030;52.274;8.040;2023-04-06T11:47:26;11.27;;;8.70;;
71366;SDS011;60030;52.274;8.040;2023-04-06T11:49:54;14.67;;;8.87;;
71366;SDS011;60030;52.274;8.040;2023-04-06T11:52:26;12.33;;;8.93;;
71366;SDS011;60030;52.274;8.040;2023-04-06T11:54:55;11.07;;;8.27;;
71366;SDS011;60030;52.274;8.040;2023-04-06T11:57:23;13.37;;;8.97;;
71366;SDS011;60030;52.274;8.040;2023-04-06T11:59:50;13.80;;;8.80;;
71366;SDS011;60030;52.274;8.040;2023-04-06T12:02:18;12.17;;;8.17;;
71366;SDS011;60030;52.274;8.040;2023-04-06T12:04:45;12.37;;;8.43;;
71366;SDS011;60030;52.274;8.040;2023-04-06T12:07:12;14.97;;;8.00;;
71366;SDS011;60030;52.274;8.040;2023-04-06T12:09:40;15.10;;;9.13;;
71366;SDS011;60030;52.274;8.040;2023-04-06T12:12:08;13.10;;;9.03;;
71366;SDS011;60030;52.274;8.040;2023-04-06T12:14:35;10.10;;;7.70;;
71366;SDS011;60030;52.274;8.040;2023-04-06T12:17:02;11.87;;;8.57;;
71366;SDS011;60030;52.274;8.040;2023-04-06T12:19:29;12.90;;;8.73;;
71366;SDS011;60030;52.274;8.040;2023-04-06T12:21:57;13.20;;;9.30;;
71366;SDS011;60030;52.274;8.040;2023-04-06T12:24:24;11.93;;;8.30;;
71366;SDS011;60030;52.274;8.040;2023-04-06T12:26:52;14.00;;;9.10;;
71366;SDS011;60030;52.274;8.040;2023-04-06T12:29:20;14.23;;;9.50;;
71366;SDS011;60030;52.274;8.040;2023-04-06T12:31:47;16.23;;;9.57;;
71366;SDS011;60030;52.274;8.040;2023-04-06T12:34:14;12.47;;;8.10;;
71366;SDS011;60030;52.274;8.040;2023-04-06T12:36:41;10.87;;;7.97;;
71366;SDS011;60030;52.274;8.040;2023-04-06T12:39:08;11.93;;;9.10;;
71366;SDS011;60030;52.274;8.040;2023-04-06T12:41:36;12.47;;;8.77;;
71366;SDS011;60030;52.274;8.040;2023-04-06T12:44:07;13.53;;;9.00;;
71366;SDS011;60030;52.274;8.040;2023-04-06T12:46:34;12.83;;;8.93;;
71366;SDS011;60030;52.274;8.040;2023-04-06T12:49:01;12.77;;;9.17;;
71366;SDS011;60030;52.274;8.040;2023-04-06T12:51:29;11.13;;;8.57;;
71366;SDS011;60030;52.274;8.040;2023-04-06T12:53:56;12.77;;;8.77;;
71366;SDS011;60030;52.274;8.040;2023-04-06T12:56:23;12.87;;;9.33;;
71366;SDS011;60030;52.274;8.040;2023-04-06T12:58:51;14.73;;;8.70;;
71366;SDS011;60030;52.274;8.040;2023-04-06T13:01:20;12.60;;;9.33;;
71366;SDS011;60030;52.274;8.040;2023-04-06T13:03:47;13.07;;;9.50;;
71366;SDS011;60030;52.274;8.040;2023-04-06T13:06:14;14.07;;;9.37;;
71366;SDS011;60030;52.274;8.040;2023-04-06T13:08:42;15.27;;;10.50;;
71366;SDS011;60030;52.274;8.040;2023-04-06T13:11:09;17.37;;;11.60;;
71366;SDS011;60030;52.274;8.040;2023-04-06T13:13:37;15.77;;;10.73;;
71366;SDS011;60030;52.274;8.040;2023-04-06T13:16:05;14.50;;;10.23;;
71366;SDS011;60030;52.274;8.040;2023-04-06T13:18:35;12.13;;;9.30;;
71366;SDS011;60030;52.274;8.040;2023-04-06T13:21:03;11.63;;;8.80;;
71366;SDS011;60030;52.274;8.040;2023-04-06T13:23:31;13.20;;;8.83;;
71366;SDS011;60030;52.274;8.040;2023-04-06T13:25:58;13.40;;;9.40;;
71366;SDS011;60030;52.274;8.040;2023-04-06T13:28:27;14.17;;;10.23;;
71366;SDS011;60030;52.274;8.040;2023-04-06T13:30:54;10.93;;;8.80;;
71366;SDS011;60030;52.274;8.040;2023-04-06T13:33:22;12.90;;;10.03;;
71366;SDS011;60030;52.274;8.040;2023-04-06T13:35:50;13.47;;;10.50;;
71366;SDS011;60030;52.274;8.040;2023-04-06T13:38:17;13.93;;;9.70;;
71366;SDS011;60030;52.274;8.040;2023-04-06T13:40:45;11.33;;;8.57;;
71366;SDS011;60030;52.274;8.040;2023-04-06T13:43:12;13.47;;;9.10;;
71366;SDS011;60030;52.274;8.040;2023-04-06T13:45:39;15.20;;;10.43;;
71366;SDS011;60030;52.274;8.040;2023-04-06T13:48:06;12.33;;;10.07;;
71366;SDS011;60030;52.274;8.040;2023-04-06T13:50:33;15.65;;;9.93;;
71366;SDS011;60030;52.274;8.040;2023-04-06T13:53:01;15.63;;;10.20;;
71366;SDS011;60030;52.274;8.040;2023-04-06T13:55:28;15.33;;;10.30;;
71366;SDS011;60030;52.274;8.040;2023-04-06T13:57:56;14.77;;;10.70;;
71366;SDS011;60030;52.274;8.040;2023-04-06T14:00:23;14.10;;;10.10;;
71366;SDS011;60030;52.274;8.040;2023-04-06T14:02:50;20.48;;;11.82;;
71366;SDS011;60030;52.274;8.040;2023-04-06T14:05:20;16.08;;;11.02;;
71366;SDS011;60030;52.274;8.040;2023-04-06T14:07:48;16.77;;;10.90;;
71366;SDS011;60030;52.274;8.040;2023-04-06T14:10:17;16.57;;;11.33;;
71366;SDS011;60030;52.274;8.040;2023-04-06T14:12:46;15.45;;;11.13;;
71366;SDS011;60030;52.274;8.040;2023-04-06T14:15:13;15.88;;;10.65;;
71366;SDS011;60030;52.274;8.040;2023-04-06T14:17:40;14.55;;;10.45;;
71366;SDS011;60030;52.274;8.040;2023-04-06T14:20:07;16.52;;;11.30;;
71366;SDS011;60030;52.274;8.040;2023-04-06T14:22:39;14.50;;;11.00;;
71366;SDS011;60030;52.274;8.040;2023-04-06T14:25:07;15.07;;;10.63;;
71366;SDS011;60030;52.274;8.040;2023-04-06T14:27:37;12.82;;;9.63;;
71366;SDS011;60030;52.274;8.040;2023-04-06T14:30:05;13.90;;;8.57;;
71366;SDS011;60030;52.274;8.040;2023-04-06T14:32:33;11.70;;;8.27;;
71366;SDS011;60030;52.274;8.040;2023-04-06T14:35:01;9.10;;;7.57;;
71366;SDS011;60030;52.274;8.040;2023-04-06T14:37:29;8.18;;;6.30;;
71366;SDS011;60030;52.274;8.040;2023-04-06T14:39:56;9.15;;;7.38;;
71366;SDS011;60030;52.274;8.040;2023-04-06T14:42:23;11.63;;;8.15;;
71366;SDS011;60030;52.274;8.040;2023-04-06T14:44:51;12.45;;;8.75;;
71366;SDS011;60030;52.274;8.040;2023-04-06T14:47:19;11.88;;;8.32;;
71366;SDS011;60030;52.274;8.040;2023-04-06T14:49:46;14.25;;;8.90;;
71366;SDS011;60030;52.274;8.040;2023-04-06T14:52:13;15.80;;;9.90;;